Time;durP1;ratioP1;P1;durP2;ratioP2;P2;SDS_P1;SDS_P2;PMS_P1;PMS_P2;Temp;Humidity;BMP_temperature;BMP_pressure;BME280_temperature;BME280_humidity;BME280_pressure;Samples;Min_cycle;Max_cycle;Signal;HPM_P1;HPM_P2
2023/01/03 00:01:10;;;;;;;23.50;8.52;;;1.80;99.90;;;;;;5027889;28;20045;-47
2023/01/03 00:03:36;;;;;;;24.17;8.55;;;1.80;99.90;;;;;;5029298;28;20090;-49
2023/01/03 00:06:02;;;;;;;18.92;8.18;;;1.70;99.90;;;;;;5030316;28;20052;-50
2023/01/03 00:08:28;;;;;;;19.55;7.50;;;1.80;99.90;;;;;;5030453;28;20120;-48
2023/01/03 00:10:54;;;;;;;21.42;7.78;;;1.70;99.90;;;;;;5030124;28;20533;-48
2023/01/03 00:13:19;;;;;;;17.83;7.65;;;1.70;99.90;;;;;;5030186;28;20657;-50
2023/01/03 00:15:45;;;;;;;21.25;7.93;;;1.80;99.90;;;;;;5028148;28;20050;-47
2023/01/03 00:18:11;;;;;;;23.58;8.38;;;1.40;99.90;;;;;;5030023;28;20045;-47
2023/01/03 00:20:36;;;;;;;18.65;6.80;;;1.40;99.90;;;;;;5029680;28;20407;-48
2023/01/03 00:23:02;;;;;;;19.40;7.07;;;1.40;99.90;;;;;;5029852;28;20049;-49
2023/01/03 00:25:28;;;;;;;18.30;7.53;;;1.40;99.90;;;;;;5029853;28;20489;-46
2023/01/03 00:27:54;;;;;;;22.60;7.43;;;1.40;99.90;;;;;;5029665;28;20051;-48
2023/01/03 00:30:20;;;;;;;16.95;7.28;;;1.40;99.90;;;;;;5029583;28;20053;-49
2023/01/03 00:32:46;;;;;;;23.13;8.20;;;1.40;99.90;;;;;;5028806;28;20080;-48
2023/01/03 00:35:11;;;;;;;20.77;7.60;;;1.40;99.90;;;;;;5028773;28;20049;-49
2023/01/03 00:37:37;;;;;;;19.08;7.90;;;1.50;99.90;;;;;;5028917;28;20049;-50
2023/01/03 00:40:04;;;;;;;20.58;7.60;;;1.40;99.90;;;;;;5029322;28;20037;-47
2023/01/03 00:43:27;;;;;;;24.60;7.75;;;1.40;99.90;;;;;;5029167;28;20041;-46
2023/01/03 00:45:15;;;;;;;32.97;10.15;;;1.40;99.90;;;;;;5028513;28;20080;-49
2023/01/03 00:47:41;;;;;;;23.73;7.70;;;1.30;99.90;;;;;;5029114;28;20081;-48
2023/01/03 00:50:07;;;;;;;20.27;7.20;;;1.30;99.90;;;;;;5029023;28;20797;-47
2023/01/03 00:52:32;;;;;;;24.80;9.15;;;1.20;99.90;;;;;;5029049;28;20734;-48
2023/01/03 00:54:58;;;;;;;30.50;10.88;;;1.20;99.90;;;;;;5028658;28;20436;-47
2023/01/03 00:57:23;;;;;;;21.50;8.73;;;1.20;99.90;;;;;;5028641;28;20723;-48
2023/01/03 00:59:49;;;;;;;23.55;9.43;;;1.20;99.90;;;;;;5028650;28;20502;-50
2023/01/03 01:02:15;;;;;;;27.77;10.43;;;1.10;99.90;;;;;;5028925;28;20654;-49
2023/01/03 01:04:40;;;;;;;31.38;11.50;;;1.20;99.90;;;;;;5027237;28;20099;-48
2023/01/03 01:07:06;;;;;;;26.25;10.98;;;1.30;99.90;;;;;;5029359;28;20077;-49
2023/01/03 01:09:35;;;;;;;26.92;11.82;;;1.40;99.90;;;;;;5029090;28;20052;-49
2023/01/03 01:12:01;;;;;;;26.15;11.82;;;1.50;99.90;;;;;;5028976;28;20033;-48
2023/01/03 01:14:28;;;;;;;29.10;12.68;;;1.60;99.90;;;;;;5028936;28;20045;-48
2023/01/03 01:17:03;;;;;;;29.00;13.00;;;1.60;99.90;;;;;;5028035;28;20523;-51
2023/01/03 01:19:35;;;;;;;29.88;13.25;;;1.90;99.90;;;;;;5028623;28;20048;-46
2023/01/03 01:22:01;;;;;;;35.63;15.52;;;2.00;99.90;;;;;;5028276;28;20337;-47
2023/01/03 01:24:27;;;;;;;34.70;14.43;;;2.10;99.90;;;;;;5028424;28;20200;-47
2023/01/03 01:26:53;;;;;;;35.97;15.23;;;2.10;99.90;;;;;;5028423;28;20780;-50
2023/01/03 01:29:19;;;;;;;36.67;16.55;;;2.20;99.90;;;;;;5028835;28;20102;-47
2023/01/03 01:31:46;;;;;;;37.45;15.52;;;2.30;99.90;;;;;;5028496;28;20041;-47
2023/01/03 01:34:12;;;;;;;38.63;15.82;;;2.40;99.90;;;;;;5028164;28;20041;-47
2023/01/03 01:36:40;;;;;;;34.42;15.85;;;2.20;99.90;;;;;;5028319;28;20080;-48
2023/01/03 01:39:12;;;;;;;37.25;15.80;;;2.50;99.90;;;;;;5028393;28;20033;-47
2023/01/03 01:45:02;;;;;;;36.60;16.50;;;2.60;99.90;;;;;;5028299;28;20049;-48
2023/01/03 01:47:47;;;;;;;46.58;16.65;;;2.60;99.90;;;;;;4966072;28;20043;-52
2023/01/03 01:50:24;;;;;;;43.90;17.48;;;2.60;99.90;;;;;;4966181;28;20404;-48
2023/01/03 01:52:58;;;;;;;47.42;18.25;;;2.70;99.90;;;;;;5008000;28;20053;-49
2023/01/03 01:55:35;;;;;;;45.53;18.90;;;2.70;99.90;;;;;;5026925;28;20444;-49
2023/01/03 01:58:01;;;;;;;37.67;16.58;;;2.70;99.90;;;;;;5027877;28;20057;-50
2023/01/03 02:00:28;;;;;;;43.97;17.55;;;2.50;99.90;;;;;;5027542;28;20501;-50
2023/01/03 02:02:54;;;;;;;41.28;18.13;;;2.60;99.90;;;;;;5027613;28;20503;-49
2023/01/03 02:05:22;;;;;;;45.78;18.55;;;2.60;99.90;;;;;;5027869;28;20116;-48
2023/01/03 02:07:51;;;;;;;46.15;18.67;;;2.50;99.90;;;;;;5028305;28;20488;-49
2023/01/03 02:10:26;;;;;;;53.83;19.80;;;2.40;99.90;;;;;;5028592;28;20049;-48
2023/01/03 02:13:09;;;;;;;47.03;19.60;;;2.30;99.90;;;;;;5028164;28;20151;-49
2023/01/03 02:16:12;;;;;;;39.00;18.27;;;2.20;99.90;;;;;;5027990;28;20144;-48
2023/01/03 02:18:49;;;;;;;46.17;18.50;;;2.20;99.90;;;;;;5027631;28;20056;-51
2023/01/03 02:21:41;;;;;;;45.20;17.98;;;2.10;99.90;;;;;;5027194;28;20045;-46
2023/01/03 02:24:25;;;;;;;57.60;20.77;;;2.00;99.90;;;;;;5018970;28;20056;-50
2023/01/03 02:27:15;;;;;;;45.63;20.10;;;1.90;99.90;;;;;;5027358;28;20323;-48
2023/01/03 02:30:04;;;;;;;45.00;18.27;;;1.80;99.90;;;;;;5027680;28;20138;-50
2023/01/03 02:32:42;;;;;;;47.30;18.92;;;1.70;99.90;;;;;;5027413;28;20674;-48
2023/01/03 02:35:22;;;;;;;54.90;19.98;;;1.70;99.90;;;;;;5026531;28;20117;-49
2023/01/03 02:37:48;;;;;;;44.92;20.05;;;1.80;99.90;;;;;;5027082;28;20045;-48
2023/01/03 02:40:13;;;;;;;50.97;19.42;;;1.80;99.90;;;;;;5026682;28;20053;-50
2023/01/03 02:43:04;;;;;;;53.45;19.13;;;1.90;99.90;;;;;;5026629;28;20535;-50
2023/01/03 02:45:59;;;;;;;61.47;20.67;;;2.00;99.90;;;;;;5026804;28;20045;-50
2023/01/03 02:48:49;;;;;;;48.72;19.17;;;2.00;99.90;;;;;;5026775;28;20056;-48
2023/01/03 02:51:32;;;;;;;48.63;20.73;;;1.80;99.90;;;;;;5017358;28;20058;-48
2023/01/03 02:53:59;;;;;;;58.90;19.88;;;1.80;99.90;;;;;;5026828;28;20041;-49
2023/01/03 02:56:31;;;;;;;56.17;19.58;;;1.80;99.90;;;;;;5026769;28;20053;-48
2023/01/03 02:59:03;;;;;;;46.50;18.25;;;1.80;99.90;;;;;;5027332;28;20476;-47
2023/01/03 03:01:30;;;;;;;68.85;20.50;;;1.80;99.90;;;;;;5027133;28;20037;-48
2023/01/03 03:03:58;;;;;;;39.80;17.02;;;1.90;99.90;;;;;;5026846;28;20800;-48
2023/01/03 03:07:02;;;;;;;58.60;19.60;;;1.80;99.90;;;;;;5026166;28;20202;-49
2023/01/03 03:09:29;;;;;;;52.20;17.60;;;1.90;99.90;;;;;;5026909;28;20057;-48
2023/01/03 03:14:49;;;;;;;56.97;20.45;;;1.80;99.90;;;;;;5026914;28;20144;-48
2023/01/03 03:17:21;;;;;;;52.08;18.75;;;1.80;99.90;;;;;;5026441;28;20041;-48
2023/01/03 03:25:56;;;;;;;45.00;17.48;;;1.60;99.90;;;;;;5026858;28;20863;-48
2023/01/03 03:28:33;;;;;;;57.72;18.70;;;1.40;99.90;;;;;;5026478;28;20683;-49
2023/01/03 03:31:07;;;;;;;61.25;20.20;;;1.30;99.90;;;;;;5026639;28;20045;-51
2023/01/03 03:33:56;;;;;;;49.20;18.90;;;1.20;99.90;;;;;;5026326;28;20037;-48
2023/01/03 03:36:37;;;;;;;66.03;20.35;;;1.10;99.90;;;;;;5025598;28;20480;-50
2023/01/03 03:44:58;;;;;;;59.58;19.90;;;1.00;99.90;;;;;;5026959;28;20049;-47
2023/01/03 03:45:01;;;;;;;44.80;18.35;;;1.00;99.90;;;;;;5026488;28;20056;-47
2023/01/03 03:47:53;;;;;;;86.25;23.75;;;0.70;99.90;;;;;;5026408;28;20065;-48
2023/01/03 03:50:36;;;;;;;69.45;22.05;;;1.00;99.90;;;;;;5026469;28;20041;-47
2023/01/03 03:53:06;;;;;;;57.08;20.23;;;0.90;99.90;;;;;;5026384;28;20060;-50
2023/01/03 03:56:04;;;;;;;64.90;20.90;;;0.90;99.90;;;;;;5026065;28;20084;-47
2023/01/03 03:58:36;;;;;;;79.13;23.75;;;0.90;99.90;;;;;;5025990;28;20046;-47
2023/01/03 04:01:02;;;;;;;52.78;20.83;;;0.80;99.90;;;;;;5026461;28;20045;-50
2023/01/03 04:03:30;;;;;;;57.83;22.33;;;1.00;99.90;;;;;;5025985;28;20041;-46
2023/01/03 04:06:00;;;;;;;67.70;23.27;;;1.20;99.90;;;;;;5026069;28;20049;-46
2023/01/03 04:08:26;;;;;;;69.07;24.38;;;1.20;99.90;;;;;;5026196;28;20041;-47
2023/01/03 04:11:04;;;;;;;70.35;26.02;;;1.30;99.90;;;;;;5026330;28;20049;-46
2023/01/03 04:13:30;;;;;;;70.63;24.42;;;1.40;99.90;;;;;;5025943;28;20045;-50
2023/01/03 04:15:56;;;;;;;87.25;26.63;;;1.50;99.90;;;;;;5026310;28;20037;-47
2023/01/03 04:18:22;;;;;;;85.45;26.45;;;1.60;99.90;;;;;;5026230;28;20060;-46
2023/01/03 04:20:47;;;;;;;71.15;26.25;;;1.50;99.90;;;;;;5029675;28;20037;-46
2023/01/03 04:23:13;;;;;;;71.00;27.05;;;1.70;99.90;;;;;;5029192;28;20037;-49
2023/01/03 04:25:39;;;;;;;74.78;26.35;;;1.80;99.90;;;;;;5029529;28;20041;-47
2023/01/03 04:28:04;;;;;;;81.38;28.05;;;1.80;99.90;;;;;;5027929;28;20180;-46
2023/01/03 04:30:30;;;;;;;84.15;27.45;;;1.90;99.90;;;;;;5029308;28;20045;-47
2023/01/03 04:32:56;;;;;;;73.88;26.67;;;1.90;99.90;;;;;;5029362;28;20087;-46
2023/01/03 04:35:22;;;;;;;78.07;28.20;;;1.90;99.90;;;;;;5028563;28;20458;-47
2023/01/03 04:37:47;;;;;;;116.00;31.52;;;1.90;99.90;;;;;;5029542;28;20056;-46
2023/01/03 04:40:13;;;;;;;76.18;26.42;;;1.90;99.90;;;;;;5029554;28;20094;-48
2023/01/03 04:45:23;;;;;;;75.25;26.98;;;2.00;99.90;;;;;;5028970;28;20103;-48
2023/01/03 04:47:51;;;;;;;73.88;27.55;;;2.10;99.90;;;;;;5029470;28;20046;-48
2023/01/03 04:50:17;;;;;;;74.15;29.48;;;2.10;99.90;;;;;;5029215;28;20116;-50
2023/01/03 04:52:42;;;;;;;82.57;28.92;;;2.10;99.90;;;;;;5029092;28;20129;-47
2023/01/03 04:55:08;;;;;;;72.28;28.17;;;2.10;99.90;;;;;;5028483;28;20033;-47
2023/01/03 04:57:35;;;;;;;81.50;28.33;;;2.10;99.90;;;;;;5028383;28;20590;-48
2023/01/03 05:00:01;;;;;;;80.18;28.75;;;2.00;99.90;;;;;;5028730;28;20561;-46
2023/01/03 05:02:27;;;;;;;82.35;29.38;;;2.20;99.90;;;;;;5028767;28;20049;-48
2023/01/03 05:04:52;;;;;;;88.82;28.15;;;2.30;99.90;;;;;;5028602;28;20168;-46
2023/01/03 05:07:18;;;;;;;85.53;31.48;;;2.30;99.90;;;;;;5028984;28;20069;-47
2023/01/03 05:09:43;;;;;;;88.20;30.25;;;2.30;99.90;;;;;;5028765;28;20045;-46
2023/01/03 05:12:11;;;;;;;87.10;30.48;;;2.30;99.90;;;;;;5027296;28;20653;-46
2023/01/03 05:14:40;;;;;;;78.18;29.83;;;2.30;99.90;;;;;;5028480;28;20049;-47
2023/01/03 05:17:07;;;;;;;91.38;31.10;;;2.30;99.90;;;;;;5028878;28;20414;-46
2023/01/03 05:19:33;;;;;;;79.28;29.85;;;2.40;99.90;;;;;;5028824;28;20111;-45
2023/01/03 05:27:27;;;;;;;80.75;29.45;;;2.40;99.90;;;;;;5028440;28;20068;-47
2023/01/03 05:29:54;;;;;;;79.75;29.45;;;2.40;99.90;;;;;;5028776;28;20467;-46
2023/01/03 05:32:21;;;;;;;73.03;27.90;;;2.40;99.90;;;;;;5028751;28;20048;-47
2023/01/03 05:34:47;;;;;;;70.68;26.98;;;2.60;99.90;;;;;;5028058;28;20363;-46
2023/01/03 05:37:13;;;;;;;93.93;31.63;;;3.50;99.90;;;;;;5028738;28;20049;-45
2023/01/03 05:39:38;;;;;;;80.60;29.23;;;2.50;99.90;;;;;;5028456;28;20059;-47
2023/01/03 05:42:04;;;;;;;74.45;28.63;;;2.50;99.90;;;;;;5028754;28;20064;-45
2023/01/03 05:44:32;;;;;;;78.35;28.88;;;2.50;99.90;;;;;;5028488;28;20037;-47
2023/01/03 05:46:59;;;;;;;72.18;29.55;;;2.80;99.90;;;;;;5029019;28;20064;-46
2023/01/03 05:49:25;;;;;;;79.38;31.48;;;2.50;99.90;;;;;;5028206;28;20938;-47
2023/01/03 05:51:51;;;;;;;84.60;31.20;;;2.50;99.90;;;;;;5028231;28;20047;-46
2023/01/03 05:54:18;;;;;;;87.43;31.90;;;2.60;99.90;;;;;;5027870;28;20068;-46
2023/01/03 05:56:44;;;;;;;87.00;31.55;;;2.60;99.90;;;;;;5027604;28;20208;-47
2023/01/03 05:59:10;;;;;;;100.00;32.03;;;2.60;99.90;;;;;;5027899;28;20120;-47
2023/01/03 06:01:36;;;;;;;88.18;33.08;;;2.60;99.90;;;;;;5028028;28;20095;-47
2023/01/03 06:04:02;;;;;;;89.80;32.08;;;2.50;99.90;;;;;;5027435;28;20387;-46
2023/01/03 06:06:28;;;;;;;89.22;32.25;;;2.40;99.90;;;;;;5028025;28;20060;-47
2023/01/03 06:08:53;;;;;;;116.57;35.38;;;2.30;99.90;;;;;;5027528;28;20041;-48
2023/01/03 06:11:20;;;;;;;93.22;33.03;;;2.20;99.90;;;;;;5027616;28;20045;-46
2023/01/03 06:13:46;;;;;;;98.97;33.35;;;2.30;99.90;;;;;;5027665;28;20077;-46
2023/01/03 06:19:00;;;;;;;103.18;33.35;;;1.80;99.90;;;;;;5027375;28;20056;-46
2023/01/03 06:21:26;;;;;;;95.28;34.65;;;1.70;99.90;;;;;;5027267;28;20037;-45
2023/01/03 06:23:52;;;;;;;109.97;33.20;;;1.60;99.90;;;;;;5027131;28;20049;-47
2023/01/03 06:26:20;;;;;;;102.40;35.08;;;1.50;99.90;;;;;;5027330;28;20095;-45
2023/01/03 06:28:46;;;;;;;105.07;34.80;;;1.40;99.90;;;;;;5027465;28;20093;-48
2023/01/03 06:31:12;;;;;;;88.88;31.95;;;1.30;99.90;;;;;;5027496;28;20522;-47
2023/01/03 06:33:38;;;;;;;104.35;34.97;;;1.30;99.90;;;;;;5026506;28;20044;-46
2023/01/03 06:36:06;;;;;;;110.70;37.33;;;1.10;99.90;;;;;;5027420;28;20168;-46
2023/01/03 06:38:31;;;;;;;110.75;35.78;;;1.10;99.90;;;;;;5025630;28;20160;-48
2023/01/03 06:40:57;;;;;;;109.28;33.90;;;1.00;99.90;;;;;;5026682;28;20124;-47
2023/01/03 06:43:23;;;;;;;140.90;36.83;;;0.90;99.90;;;;;;5026554;28;20041;-48
2023/01/03 06:54:06;;;;;;;79.15;30.75;;;0.70;99.90;;;;;;5026804;28;20052;-45
2023/01/03 06:56:32;;;;;;;82.25;30.48;;;0.70;99.90;;;;;;5026703;28;20119;-45
2023/01/03 06:58:58;;;;;;;90.93;31.13;;;0.70;99.90;;;;;;5026725;28;20045;-46
2023/01/03 07:01:23;;;;;;;88.80;31.45;;;0.60;99.90;;;;;;5027501;28;20044;-48
2023/01/03 07:03:49;;;;;;;94.82;33.80;;;0.40;99.90;;;;;;5026855;28;20045;-46
2023/01/03 07:06:15;;;;;;;96.65;32.58;;;0.50;99.90;;;;;;5027503;28;20049;-45
2023/01/03 07:08:40;;;;;;;120.75;36.00;;;0.60;99.90;;;;;;5027125;28;20057;-46
2023/01/03 07:11:06;;;;;;;90.40;34.65;;;0.60;99.90;;;;;;5027167;28;20049;-45
2023/01/03 07:16:18;;;;;;;118.13;38.35;;;0.50;99.90;;;;;;5026972;28;20125;-47
2023/01/03 07:18:44;;;;;;;88.47;33.88;;;0.40;99.90;;;;;;5026889;28;20186;-47
2023/01/03 07:21:11;;;;;;;166.55;40.75;;;0.40;99.90;;;;;;5027094;28;20140;-47
2023/01/03 07:23:37;;;;;;;99.63;35.85;;;0.40;99.90;;;;;;5026731;28;20379;-47
2023/01/03 07:26:03;;;;;;;97.53;36.85;;;0.30;99.90;;;;;;5026837;28;20037;-46
2023/01/03 07:28:28;;;;;;;96.60;34.70;;;0.30;99.90;;;;;;5027040;28;20041;-45
2023/01/03 07:31:00;;;;;;;91.20;35.60;;;0.30;99.90;;;;;;5026867;28;20041;-47
2023/01/03 07:33:25;;;;;;;107.55;36.45;;;0.30;99.90;;;;;;5026312;28;20045;-46
2023/01/03 07:35:51;;;;;;;102.40;36.97;;;0.40;99.90;;;;;;5026522;28;20709;-48
2023/01/03 07:38:17;;;;;;;94.47;37.55;;;0.20;99.90;;;;;;5026775;28;20041;-45
2023/01/03 07:40:43;;;;;;;99.78;36.63;;;0.30;99.90;;;;;;5026372;28;20673;-46
2023/01/03 07:45:55;;;;;;;114.03;37.75;;;0.30;99.90;;;;;;5026442;28;20061;-46
2023/01/03 07:48:21;;;;;;;107.45;39.92;;;0.20;99.90;;;;;;5026373;28;20050;-46
2023/01/03 07:50:47;;;;;;;98.82;39.05;;;0.30;99.90;;;;;;5025973;28;20049;-49
2023/01/03 07:53:15;;;;;;;134.82;41.53;;;0.30;99.90;;;;;;5026524;28;20045;-47
2023/01/03 07:55:43;;;;;;;117.50;41.97;;;0.40;99.90;;;;;;5029705;28;20041;-46
2023/01/03 07:58:09;;;;;;;145.40;43.67;;;0.40;99.90;;;;;;5030148;28;20734;-48
2023/01/03 08:00:35;;;;;;;120.35;41.80;;;0.40;99.90;;;;;;5030493;28;20113;-48
2023/01/03 08:03:01;;;;;;;200.82;46.50;;;0.40;99.90;;;;;;5029695;28;20597;-46
2023/01/03 08:05:26;;;;;;;109.10;39.42;;;0.40;99.90;;;;;;5030083;28;20041;-46
2023/01/03 08:07:52;;;;;;;124.38;40.03;;;0.30;99.90;;;;;;5029965;28;20124;-45
2023/01/03 08:13:16;;;;;;;95.03;37.10;;;0.30;99.90;;;;;;5029600;28;20049;-47
2023/01/03 08:15:55;;;;;;;130.70;39.63;;;0.40;99.90;;;;;;5029345;28;20573;-46
2023/01/03 08:18:24;;;;;;;137.02;40.08;;;0.40;99.90;;;;;;5029436;28;20574;-47
2023/01/03 08:20:53;;;;;;;153.02;40.70;;;0.20;99.90;;;;;;5028175;28;20476;-46
2023/01/03 08:23:18;;;;;;;141.60;36.95;;;0.40;99.90;;;;;;5029516;28;20116;-48
2023/01/03 08:25:44;;;;;;;174.68;40.10;;;0.60;99.90;;;;;;5029487;28;20748;-45
2023/01/03 08:28:10;;;;;;;186.18;39.08;;;0.70;99.90;;;;;;5029263;28;20095;-46
2023/01/03 08:30:48;;;;;;;154.40;36.13;;;0.70;99.90;;;;;;5029229;28;20060;-47
2023/01/03 08:33:15;;;;;;;164.18;35.33;;;0.70;99.90;;;;;;5028939;28;20049;-47
2023/01/03 08:35:51;;;;;;;151.15;35.63;;;0.80;99.90;;;;;;5029477;28;20072;-46
2023/01/03 08:38:26;;;;;;;145.48;32.42;;;0.90;99.90;;;;;;5029448;28;20048;-46
2023/01/03 08:40:52;;;;;;;152.80;33.38;;;0.90;99.90;;;;;;5029704;28;20034;-49
2023/01/03 08:43:19;;;;;;;166.48;33.92;;;0.80;99.90;;;;;;5029213;28;20045;-47
2023/01/03 08:45:46;;;;;;;192.77;37.63;;;1.10;99.90;;;;;;5029423;28;20053;-45
2023/01/03 08:48:12;;;;;;;258.35;39.88;;;1.10;99.90;;;;;;5028973;28;20053;-46
2023/01/03 08:50:39;;;;;;;193.57;36.08;;;1.20;99.90;;;;;;5029289;28;20045;-45
2023/01/03 08:53:05;;;;;;;197.20;37.92;;;1.30;99.90;;;;;;5029114;28;20045;-46
2023/01/03 08:55:32;;;;;;;191.20;37.80;;;1.30;99.90;;;;;;5029166;28;20576;-47
2023/01/03 08:57:58;;;;;;;179.95;36.72;;;1.40;99.90;;;;;;5029006;28;20124;-48
2023/01/03 09:00:25;;;;;;;247.63;41.05;;;1.50;99.90;;;;;;5029007;28;20075;-47
2023/01/03 09:02:50;;;;;;;220.07;39.65;;;1.50;99.90;;;;;;5028797;28;20044;-46
2023/01/03 09:05:16;;;;;;;337.80;46.47;;;1.60;99.90;;;;;;5028439;28;20119;-46
2023/01/03 09:07:42;;;;;;;164.45;34.50;;;1.70;99.90;;;;;;5027744;28;20533;-47
2023/01/03 09:10:09;;;;;;;252.10;43.20;;;1.80;99.90;;;;;;5028429;28;20053;-47
2023/01/03 09:12:34;;;;;;;212.02;39.30;;;1.80;99.90;;;;;;5028772;28;20407;-47
2023/01/03 09:15:00;;;;;;;279.10;45.00;;;1.80;99.90;;;;;;5028749;28;20049;-50
2023/01/03 09:17:27;;;;;;;272.73;45.67;;;2.00;99.90;;;;;;5028196;28;20064;-45
2023/01/03 09:19:52;;;;;;;312.52;47.80;;;2.00;99.90;;;;;;5028863;28;20049;-46
2023/01/03 09:22:18;;;;;;;270.25;44.67;;;2.10;99.90;;;;;;5028488;28;20041;-46
2023/01/03 09:24:44;;;;;;;339.73;51.65;;;2.30;99.90;;;;;;5010716;28;20753;-48
2023/01/03 09:27:09;;;;;;;325.35;50.30;;;2.30;99.90;;;;;;5046280;28;20052;-46
2023/01/03 09:29:35;;;;;;;317.40;50.72;;;2.40;99.90;;;;;;5046889;28;20124;-45
2023/01/03 09:32:02;;;;;;;346.60;52.50;;;3.70;99.90;;;;;;5045265;28;20080;-46
2023/01/03 09:34:28;;;;;;;308.05;51.90;;;2.50;99.90;;;;;;5046476;28;20069;-46
2023/01/03 09:36:53;;;;;;;292.75;49.25;;;2.50;99.90;;;;;;5046347;28;20045;-45
2023/01/03 09:39:19;;;;;;;305.80;51.08;;;2.60;99.90;;;;;;5046165;28;20041;-46
2023/01/03 09:43:11;;;;;;;327.95;53.50;;;2.70;99.90;;;;;;5046583;28;20044;-48
2023/01/03 09:44:31;;;;;;;298.38;48.28;;;2.80;99.90;;;;;;5046281;28;20516;-46
2023/01/03 09:46:57;;;;;;;326.48;52.97;;;2.80;99.90;;;;;;5045902;28;20119;-48
2023/01/03 09:49:23;;;;;;;242.00;48.83;;;4.50;99.90;;;;;;5044026;28;20467;-48
2023/01/03 10:03:43;;;;;;;205.75;48.45;;;3.50;99.90;;;;;;5044601;28;20119;-47
2023/01/03 10:06:43;;;;;;;278.70;53.67;;;3.50;99.90;;;;;;5042478;28;20037;-61
2023/01/03 10:09:18;;;;;;;223.98;51.47;;;3.60;99.90;;;;;;5043267;28;20574;-58
2023/01/03 10:11:49;;;;;;;197.68;48.05;;;3.70;99.90;;;;;;5059580;28;20139;-57
2023/01/03 10:14:53;;;;;;;212.15;50.15;;;3.80;99.90;;;;;;5043316;28;20041;-56
2023/01/03 10:17:28;;;;;;;205.32;49.17;;;3.90;99.90;;;;;;5042501;28;20487;-57
2023/01/03 10:20:03;;;;;;;280.25;53.15;;;4.00;99.90;;;;;;5043538;28;20048;-50
2023/01/03 10:22:31;;;;;;;200.55;50.65;;;4.20;99.90;;;;;;5044727;28;20041;-47
2023/01/03 10:25:10;;;;;;;169.23;45.85;;;5.20;99.90;;;;;;5034397;28;20063;-52
2023/01/03 10:27:48;;;;;;;154.70;46.13;;;4.10;99.90;;;;;;5044628;28;20087;-46
2023/01/03 10:30:52;;;;;;;192.68;47.63;;;4.20;99.90;;;;;;5044680;28;20045;-50
2023/01/03 10:33:37;;;;;;;211.70;49.50;;;4.20;99.90;;;;;;5041856;28;20045;-54
2023/01/03 10:36:03;;;;;;;232.38;50.03;;;4.20;99.90;;;;;;5059592;28;20085;-56
2023/01/03 10:38:29;;;;;;;169.40;47.60;;;4.30;99.90;;;;;;5044556;28;20474;-56
2023/01/03 10:41:00;;;;;;;140.48;44.63;;;4.30;99.90;;;;;;5044064;28;20879;-57
2023/01/03 10:43:37;;;;;;;162.32;46.53;;;5.40;99.90;;;;;;5059796;28;20052;-53
2023/01/03 10:46:16;;;;;;;255.77;51.13;;;4.40;99.90;;;;;;5044694;28;20056;-55
2023/01/03 10:48:43;;;;;;;190.93;49.05;;;4.50;99.90;;;;;;5044786;28;20475;-52
2023/01/03 10:51:50;;;;;;;185.32;48.78;;;4.50;99.90;;;;;;5044712;28;20068;-48
2023/01/03 10:54:19;;;;;;;214.02;49.45;;;4.50;99.90;;;;;;5020965;28;20136;-55
2023/01/03 10:56:46;;;;;;;170.52;48.60;;;4.50;99.90;;;;;;5065148;28;20060;-60
2023/01/03 10:59:21;;;;;;;158.80;48.45;;;4.60;99.90;;;;;;5067802;28;20063;-61
2023/01/03 11:02:13;;;;;;;203.73;50.40;;;4.60;99.90;;;;;;5049996;28;20051;-51
2023/01/03 11:04:40;;;;;;;216.70;50.75;;;4.70;99.90;;;;;;5043968;28;20067;-66
2023/01/03 11:07:15;;;;;;;185.25;51.35;;;5.10;99.90;;;;;;5044635;28;20049;-67
2023/01/03 11:09:45;;;;;;;169.00;48.10;;;5.00;99.90;;;;;;5060040;28;20119;-53
2023/01/03 11:12:27;;;;;;;160.75;48.90;;;5.10;99.90;;;;;;5044179;28;20053;-51
2023/01/03 11:14:56;;;;;;;227.05;53.60;;;5.40;99.90;;;;;;5044316;28;20123;-47
2023/01/03 11:17:23;;;;;;;156.75;47.28;;;4.90;99.90;;;;;;5044138;28;20114;-50
2023/01/03 11:19:50;;;;;;;168.27;48.45;;;4.90;99.90;;;;;;5044482;28;20687;-56
2023/01/03 11:22:34;;;;;;;159.57;48.53;;;4.90;99.90;;;;;;5044425;28;20044;-57
2023/01/03 11:25:29;;;;;;;153.23;49.20;;;5.00;99.90;;;;;;5048336;28;20049;-57
2023/01/03 11:28:22;;;;;;;160.18;47.72;;;5.10;99.90;;;;;;4974429;28;20496;-47
2023/01/03 11:31:18;;;;;;;206.25;51.25;;;5.10;99.90;;;;;;5063861;28;20391;-50
2023/01/03 11:34:19;;;;;;;197.85;50.85;;;5.10;99.90;;;;;;5047959;28;20075;-45
2023/01/03 11:36:57;;;;;;;176.80;50.85;;;5.20;99.90;;;;;;5047049;28;20123;-46
2023/01/03 11:39:26;;;;;;;188.68;51.75;;;5.50;99.90;;;;;;5047176;28;20076;-63
2023/01/03 11:42:09;;;;;;;135.48;47.25;;;5.30;99.90;;;;;;5048655;28;20098;-56
2023/01/03 11:45:06;;;;;;;141.55;47.95;;;5.30;99.90;;;;;;5047587;28;20051;-55
2023/01/03 11:48:10;;;;;;;134.57;47.97;;;5.40;99.90;;;;;;5047711;28;20049;-54
2023/01/03 11:50:50;;;;;;;139.23;46.30;;;5.40;99.90;;;;;;5045946;28;20052;-52
2023/01/03 11:53:34;;;;;;;107.63;42.35;;;5.40;99.90;;;;;;5046141;28;20567;-56
2023/01/03 11:56:40;;;;;;;138.55;45.58;;;5.50;99.90;;;;;;5047393;28;20628;-55
2023/01/03 11:59:17;;;;;;;109.00;42.90;;;5.60;99.90;;;;;;5038970;28;20154;-57
2023/01/03 12:01:53;;;;;;;131.77;45.92;;;5.70;99.90;;;;;;5047743;28;20052;-57
2023/01/03 12:04:54;;;;;;;120.60;44.17;;;5.70;99.90;;;;;;5062694;28;20041;-56
2023/01/03 12:07:31;;;;;;;118.63;43.17;;;5.70;99.90;;;;;;5063238;28;20071;-49
2023/01/03 12:10:09;;;;;;;114.85;43.83;;;5.60;99.90;;;;;;5046363;28;20659;-55
2023/01/03 12:12:53;;;;;;;134.25;46.47;;;5.70;99.90;;;;;;5046703;28;20041;-52
2023/01/03 12:15:23;;;;;;;126.57;45.45;;;5.70;99.90;;;;;;5047605;28;20146;-52
2023/01/03 12:18:09;;;;;;;111.22;45.08;;;5.70;99.90;;;;;;5047285;28;20041;-51
2023/01/03 12:20:44;;;;;;;116.97;44.22;;;5.70;99.90;;;;;;5046230;28;20494;-52
2023/01/03 12:23:24;;;;;;;109.70;43.17;;;5.60;99.90;;;;;;5048031;28;20052;-56
2023/01/03 12:25:55;;;;;;;112.97;42.95;;;5.60;99.90;;;;;;5050723;28;20623;-52
2023/01/03 12:28:40;;;;;;;99.40;40.58;;;5.60;99.90;;;;;;5046906;28;20128;-54
2023/01/03 12:31:24;;;;;;;98.97;39.20;;;5.60;99.90;;;;;;5046195;28;20146;-55
2023/01/03 12:34:18;;;;;;;89.57;38.55;;;5.60;99.90;;;;;;5045520;28;20114;-55
2023/01/03 12:36:56;;;;;;;94.07;38.75;;;5.60;99.90;;;;;;5045032;28;20053;-54
2023/01/03 12:39:41;;;;;;;88.30;37.20;;;5.60;99.90;;;;;;5044595;28;20053;-55
2023/01/03 12:42:30;;;;;;;87.95;37.70;;;5.70;99.90;;;;;;5046301;28;20045;-53
2023/01/03 12:45:18;;;;;;;91.07;39.05;;;5.70;99.90;;;;;;5046827;28;20045;-56
2023/01/03 12:48:03;;;;;;;88.97;37.10;;;5.70;99.90;;;;;;5046648;28;20045;-57
2023/01/03 12:50:50;;;;;;;87.00;36.60;;;5.70;99.90;;;;;;5048015;28;20041;-62
2023/01/03 12:53:35;;;;;;;90.25;37.42;;;5.70;99.90;;;;;;5063740;28;20099;-54
2023/01/03 12:56:26;;;;;;;87.18;37.20;;;5.80;99.90;;;;;;5046820;28;20673;-56
2023/01/03 12:59:24;;;;;;;83.43;35.15;;;5.80;99.90;;;;;;5046027;28;20053;-52
2023/01/03 13:02:08;;;;;;;79.17;34.27;;;5.80;99.90;;;;;;5044982;28;20059;-53
2023/01/03 13:04:37;;;;;;;82.80;33.78;;;5.80;99.90;;;;;;5045074;28;20055;-56
2023/01/03 13:07:25;;;;;;;89.35;34.67;;;5.90;99.90;;;;;;5046277;28;20048;-56
2023/01/03 13:10:07;;;;;;;90.95;34.92;;;5.80;99.90;;;;;;5044817;28;20041;-54
2023/01/03 13:12:38;;;;;;;80.57;33.10;;;5.80;99.90;;;;;;5043783;28;20129;-51
2023/01/03 13:15:30;;;;;;;77.35;31.90;;;5.80;99.90;;;;;;5061083;28;20940;-56
2023/01/03 13:18:33;;;;;;;92.85;33.05;;;5.80;99.90;;;;;;5045953;28;20045;-48
2023/01/03 13:20:59;;;;;;;89.97;33.40;;;5.80;99.90;;;;;;5043927;28;20041;-56
2023/01/03 13:23:28;;;;;;;88.40;31.55;;;5.90;99.90;;;;;;5045937;28;20115;-49
2023/01/03 13:26:05;;;;;;;88.57;31.48;;;5.90;99.90;;;;;;5025134;28;20064;-51
2023/01/03 13:28:38;;;;;;;79.72;30.55;;;5.90;99.90;;;;;;5044298;28;20411;-47
2023/01/03 13:31:15;;;;;;;83.72;31.70;;;5.90;99.90;;;;;;5045775;28;20051;-50
2023/01/03 13:33:47;;;;;;;86.78;30.77;;;5.90;99.90;;;;;;5061139;28;20127;-47
2023/01/03 13:36:17;;;;;;;77.72;29.90;;;5.90;99.90;;;;;;5045029;28;20049;-49
2023/01/03 13:38:43;;;;;;;81.57;30.45;;;5.90;99.90;;;;;;5046196;28;20083;-45
2023/01/03 13:41:38;;;;;;;82.90;30.83;;;5.90;99.90;;;;;;5046069;28;20065;-44
2023/01/03 13:44:14;;;;;;;87.53;31.65;;;6.00;99.90;;;;;;5043206;28;20052;-50
2023/01/03 13:46:41;;;;;;;79.05;28.88;;;6.00;99.90;;;;;;5046198;28;20049;-48
2023/01/03 13:49:19;;;;;;;85.63;31.95;;;6.00;99.90;;;;;;5045653;28;20059;-49
2023/01/03 13:51:53;;;;;;;84.85;31.02;;;6.00;99.90;;;;;;5045354;28;20148;-49
2023/01/03 13:54:19;;;;;;;74.15;28.95;;;6.60;99.90;;;;;;5045128;28;20424;-53